sensor_id;sensor_type;location;lat;lon;timestamp;P1;durP1;ratioP1;P2;durP2;ratioP2
62556;SDS011;48612;50.742;-1.226;2022-09-09T00:34:26;10.70;;;3.17;;
62556;SDS011;48612;50.742;-1.226;2022-09-09T00:43:24;14.02;;;3.65;;
62556;SDS011;48612;50.742;-1.226;2022-09-09T00:48:16;11.90;;;3.20;;
62556;SDS011;48612;50.742;-1.226;2022-09-09T00:50:59;13.55;;;3.38;;
62556;SDS011;48612;50.742;-1.226;2022-09-09T00:53:39;11.80;;;3.50;;
62556;SDS011;48612;50.742;-1.226;2022-09-09T00:56:45;6.53;;;3.10;;
62556;SDS011;48612;50.742;-1.226;2022-09-09T01:01:50;8.68;;;3.20;;
62556;SDS011;48612;50.742;-1.226;2022-09-09T01:04:27;9.77;;;3.58;;
62556;SDS011;48612;50.742;-1.226;2022-09-09T01:07:09;12.32;;;3.47;;
62556;SDS011;48612;50.742;-1.226;2022-09-09T01:09:54;10.00;;;3.42;;
62556;SDS011;48612;50.742;-1.226;2022-09-09T01:12:38;9.27;;;3.15;;
62556;SDS011;48612;50.742;-1.226;2022-09-09T01:29:17;8.15;;;3.00;;
62556;SDS011;48612;50.742;-1.226;2022-09-09T01:31:56;8.25;;;3.00;;
62556;SDS011;48612;50.742;-1.226;2022-09-09T01:34:28;9.10;;;3.40;;
62556;SDS011;48612;50.742;-1.226;2022-09-09T01:39:32;12.45;;;3.83;;
62556;SDS011;48612;50.742;-1.226;2022-09-09T01:42:03;9.15;;;3.40;;
62556;SDS011;48612;50.742;-1.226;2022-09-09T01:44:32;11.05;;;3.25;;
62556;SDS011;48612;50.742;-1.226;2022-09-09T01:46:59;5.13;;;2.63;;
62556;SDS011;48612;50.742;-1.226;2022-09-09T01:49:25;7.80;;;3.10;;
62556;SDS011;48612;50.742;-1.226;2022-09-09T01:51:54;9.35;;;3.92;;
62556;SDS011;48612;50.742;-1.226;2022-09-09T01:54:22;6.40;;;3.42;;
62556;SDS011;48612;50.742;-1.226;2022-09-09T01:59:44;10.02;;;3.30;;
62556;SDS011;48612;50.742;-1.226;2022-09-09T02:02:19;7.10;;;3.10;;
62556;SDS011;48612;50.742;-1.226;2022-09-09T02:07:21;8.98;;;3.10;;
62556;SDS011;48612;50.742;-1.226;2022-09-09T02:10:12;5.47;;;2.75;;
62556;SDS011;48612;50.742;-1.226;2022-09-09T02:13:07;7.85;;;3.00;;
62556;SDS011;48612;50.742;-1.226;2022-09-09T02:15:47;9.10;;;3.17;;
62556;SDS011;48612;50.742;-1.226;2022-09-09T02:18:38;7.57;;;2.85;;
62556;SDS011;48612;50.742;-1.226;2022-09-09T02:21:05;8.70;;;3.15;;
62556;SDS011;48612;50.742;-1.226;2022-09-09T02:23:32;9.38;;;3.70;;
62556;SDS011;48612;50.742;-1.226;2022-09-09T02:26:07;9.68;;;3.00;;
62556;SDS011;48612;50.742;-1.226;2022-09-09T02:28:35;6.60;;;2.53;;
62556;SDS011;48612;50.742;-1.226;2022-09-09T02:31:07;7.25;;;3.15;;
62556;SDS011;48612;50.742;-1.226;2022-09-09T02:33:34;8.98;;;3.33;;
62556;SDS011;48612;50.742;-1.226;2022-09-09T02:36:07;8.60;;;3.13;;
62556;SDS011;48612;50.742;-1.226;2022-09-09T02:38:36;10.32;;;3.83;;
62556;SDS011;48612;50.742;-1.226;2022-09-09T02:41:17;8.32;;;3.55;;
62556;SDS011;48612;50.742;-1.226;2022-09-09T02:43:49;5.32;;;3.53;;
62556;SDS011;48612;50.742;-1.226;2022-09-09T02:49:25;8.93;;;4.00;;
62556;SDS011;48612;50.742;-1.226;2022-09-09T02:52:01;9.05;;;3.58;;
62556;SDS011;48612;50.742;-1.226;2022-09-09T02:54:34;12.13;;;4.38;;
62556;SDS011;48612;50.742;-1.226;2022-09-09T02:59:58;6.35;;;3.67;;
62556;SDS011;48612;50.742;-1.226;2022-09-09T03:02:25;8.18;;;3.80;;
62556;SDS011;48612;50.742;-1.226;2022-09-09T03:04:54;5.80;;;3.28;;
62556;SDS011;48612;50.742;-1.226;2022-09-09T03:07:19;10.82;;;3.78;;
62556;SDS011;48612;50.742;-1.226;2022-09-09T03:09:45;5.53;;;3.35;;
62556;SDS011;48612;50.742;-1.226;2022-09-09T03:12:11;10.30;;;4.00;;
62556;SDS011;48612;50.742;-1.226;2022-09-09T03:14:37;10.68;;;3.40;;
62556;SDS011;48612;50.742;-1.226;2022-09-09T03:17:04;10.57;;;3.13;;
62556;SDS011;48612;50.742;-1.226;2022-09-09T03:19:30;6.72;;;2.40;;
62556;SDS011;48612;50.742;-1.226;2022-09-09T03:21:56;8.07;;;3.15;;
62556;SDS011;48612;50.742;-1.226;2022-09-09T03:24:23;7.32;;;2.72;;
62556;SDS011;48612;50.742;-1.226;2022-09-09T03:27:10;9.75;;;3.50;;
62556;SDS011;48612;50.742;-1.226;2022-09-09T03:29:35;7.95;;;2.58;;
62556;SDS011;48612;50.742;-1.226;2022-09-09T03:32:00;8.40;;;2.38;;
62556;SDS011;48612;50.742;-1.226;2022-09-09T03:34:26;5.10;;;2.00;;
62556;SDS011;48612;50.742;-1.226;2022-09-09T03:36:52;4.38;;;2.30;;
62556;SDS011;48612;50.742;-1.226;2022-09-09T03:42:46;6.85;;;2.03;;
62556;SDS011;48612;50.742;-1.226;2022-09-09T03:45:13;7.22;;;2.60;;
62556;SDS011;48612;50.742;-1.226;2022-09-09T03:47:39;4.93;;;2.38;;
62556;SDS011;48612;50.742;-1.226;2022-09-09T03:50:06;5.68;;;2.30;;
62556;SDS011;48612;50.742;-1.226;2022-09-09T03:52:37;4.47;;;2.15;;
62556;SDS011;48612;50.742;-1.226;2022-09-09T03:55:05;4.25;;;2.00;;
62556;SDS011;48612;50.742;-1.226;2022-09-09T03:57:33;6.20;;;2.33;;
62556;SDS011;48612;50.742;-1.226;2022-09-09T04:00:01;4.75;;;1.88;;
62556;SDS011;48612;50.742;-1.226;2022-09-09T04:02:33;6.32;;;2.25;;
62556;SDS011;48612;50.742;-1.226;2022-09-09T04:04:58;9.80;;;2.22;;
62556;SDS011;48612;50.742;-1.226;2022-09-09T04:07:25;6.00;;;2.25;;
62556;SDS011;48612;50.742;-1.226;2022-09-09T04:09:52;5.40;;;1.90;;
62556;SDS011;48612;50.742;-1.226;2022-09-09T04:13:05;8.43;;;2.65;;
62556;SDS011;48612;50.742;-1.226;2022-09-09T04:15:42;5.32;;;2.05;;
62556;SDS011;48612;50.742;-1.226;2022-09-09T04:18:08;7.13;;;2.33;;
62556;SDS011;48612;50.742;-1.226;2022-09-09T04:21:37;11.02;;;2.40;;
62556;SDS011;48612;50.742;-1.226;2022-09-09T04:24:07;9.27;;;2.47;;
62556;SDS011;48612;50.742;-1.226;2022-09-09T04:26:45;6.13;;;2.83;;
62556;SDS011;48612;50.742;-1.226;2022-09-09T04:36:12;7.32;;;2.60;;
62556;SDS011;48612;50.742;-1.226;2022-09-09T04:38:56;4.90;;;2.58;;
62556;SDS011;48612;50.742;-1.226;2022-09-09T04:43:59;6.70;;;2.55;;
62556;SDS011;48612;50.742;-1.226;2022-09-09T04:46:25;8.45;;;3.33;;
62556;SDS011;48612;50.742;-1.226;2022-09-09T04:48:52;7.60;;;2.80;;
62556;SDS011;48612;50.742;-1.226;2022-09-09T04:51:19;7.97;;;2.92;;
62556;SDS011;48612;50.742;-1.226;2022-09-09T04:53:45;12.05;;;3.53;;
62556;SDS011;48612;50.742;-1.226;2022-09-09T04:56:15;10.95;;;3.40;;
62556;SDS011;48612;50.742;-1.226;2022-09-09T04:58:42;9.82;;;3.55;;
62556;SDS011;48612;50.742;-1.226;2022-09-09T05:01:10;7.13;;;3.33;;
62556;SDS011;48612;50.742;-1.226;2022-09-09T05:03:38;9.40;;;3.90;;
62556;SDS011;48612;50.742;-1.226;2022-09-09T05:06:11;6.18;;;3.60;;
62556;SDS011;48612;50.742;-1.226;2022-09-09T05:08:39;10.23;;;3.70;;
62556;SDS011;48612;50.742;-1.226;2022-09-09T05:11:16;7.53;;;3.90;;
62556;SDS011;48612;50.742;-1.226;2022-09-09T05:14:02;6.88;;;3.50;;
62556;SDS011;48612;50.742;-1.226;2022-09-09T05:16:29;10.13;;;4.18;;
62556;SDS011;48612;50.742;-1.226;2022-09-09T05:18:55;7.97;;;3.80;;
62556;SDS011;48612;50.742;-1.226;2022-09-09T05:21:24;10.93;;;3.97;;
62556;SDS011;48612;50.742;-1.226;2022-09-09T05:23:54;6.40;;;3.45;;
62556;SDS011;48612;50.742;-1.226;2022-09-09T05:26:21;12.55;;;4.30;;
62556;SDS011;48612;50.742;-1.226;2022-09-09T05:28:50;10.50;;;4.05;;
62556;SDS011;48612;50.742;-1.226;2022-09-09T05:31:19;9.73;;;4.22;;
62556;SDS011;48612;50.742;-1.226;2022-09-09T05:33:53;8.27;;;4.10;;
62556;SDS011;48612;50.742;-1.226;2022-09-09T05:36:22;8.18;;;4.07;;
62556;SDS011;48612;50.742;-1.226;2022-09-09T05:38:48;7.45;;;4.40;;
62556;SDS011;48612;50.742;-1.226;2022-09-09T05:41:16;9.80;;;4.50;;
62556;SDS011;48612;50.742;-1.226;2022-09-09T05:43:42;8.57;;;4.55;;
62556;SDS011;48612;50.742;-1.226;2022-09-09T05:46:13;8.32;;;4.88;;
62556;SDS011;48612;50.742;-1.226;2022-09-09T05:48:41;7.75;;;4.80;;
62556;SDS011;48612;50.742;-1.226;2022-09-09T05:51:12;11.30;;;5.05;;
62556;SDS011;48612;50.742;-1.226;2022-09-09T05:53:43;12.25;;;4.38;;
62556;SDS011;48612;50.742;-1.226;2022-09-09T05:56:19;11.30;;;4.55;;
62556;SDS011;48612;50.742;-1.226;2022-09-09T05:58:50;10.77;;;5.18;;
62556;SDS011;48612;50.742;-1.226;2022-09-09T06:01:22;11.32;;;5.05;;
62556;SDS011;48612;50.742;-1.226;2022-09-09T06:03:59;8.52;;;5.28;;
62556;SDS011;48612;50.742;-1.226;2022-09-09T06:06:25;16.00;;;5.93;;
62556;SDS011;48612;50.742;-1.226;2022-09-09T06:09:05;15.35;;;5.22;;
62556;SDS011;48612;50.742;-1.226;2022-09-09T06:11:35;12.15;;;5.05;;
62556;SDS011;48612;50.742;-1.226;2022-09-09T06:14:03;10.57;;;4.95;;
62556;SDS011;48612;50.742;-1.226;2022-09-09T06:16:30;9.50;;;5.15;;
62556;SDS011;48612;50.742;-1.226;2022-09-09T06:18:59;12.52;;;5.43;;
62556;SDS011;48612;50.742;-1.226;2022-09-09T06:21:35;10.98;;;5.00;;
62556;SDS011;48612;50.742;-1.226;2022-09-09T06:24:05;11.93;;;4.60;;
62556;SDS011;48612;50.742;-1.226;2022-09-09T06:26:33;10.70;;;4.85;;
62556;SDS011;48612;50.742;-1.226;2022-09-09T06:29:01;13.40;;;4.78;;
62556;SDS011;48612;50.742;-1.226;2022-09-09T06:31:29;12.13;;;5.32;;
62556;SDS011;48612;50.742;-1.226;2022-09-09T06:33:57;11.82;;;4.60;;
62556;SDS011;48612;50.742;-1.226;2022-09-09T06:36:24;12.88;;;5.57;;
62556;SDS011;48612;50.742;-1.226;2022-09-09T06:38:54;9.25;;;4.65;;
62556;SDS011;48612;50.742;-1.226;2022-09-09T06:41:20;8.48;;;4.93;;
62556;SDS011;48612;50.742;-1.226;2022-09-09T06:43:55;11.23;;;4.65;;
62556;SDS011;48612;50.742;-1.226;2022-09-09T06:46:29;11.90;;;4.57;;
62556;SDS011;48612;50.742;-1.226;2022-09-09T06:51:28;14.35;;;5.15;;
62556;SDS011;48612;50.742;-1.226;2022-09-09T06:53:59;14.65;;;4.05;;
62556;SDS011;48612;50.742;-1.226;2022-09-09T06:56:37;8.68;;;3.60;;
62556;SDS011;48612;50.742;-1.226;2022-09-09T06:59:20;8.63;;;3.72;;
62556;SDS011;48612;50.742;-1.226;2022-09-09T07:01:46;11.50;;;3.33;;
62556;SDS011;48612;50.742;-1.226;2022-09-09T08:15:46;11.18;;;2.67;;
62556;SDS011;48612;50.742;-1.226;2022-09-09T08:19:09;10.15;;;2.50;;
62556;SDS011;48612;50.742;-1.226;2022-09-09T08:22:21;6.03;;;2.33;;
62556;SDS011;48612;50.742;-1.226;2022-09-09T08:24:49;6.05;;;2.67;;
62556;SDS011;48612;50.742;-1.226;2022-09-09T08:27:22;4.55;;;2.17;;
62556;SDS011;48612;50.742;-1.226;2022-09-09T08:30:08;13.43;;;3.05;;
62556;SDS011;48612;50.742;-1.226;2022-09-09T08:35:19;11.98;;;2.60;;
62556;SDS011;48612;50.742;-1.226;2022-09-09T08:37:47;6.32;;;2.55;;
62556;SDS011;48612;50.742;-1.226;2022-09-09T08:40:33;5.25;;;2.13;;
62556;SDS011;48612;50.742;-1.226;2022-09-09T08:43:05;6.60;;;1.98;;
62556;SDS011;48612;50.742;-1.226;2022-09-09T08:45:37;7.78;;;2.33;;
62556;SDS011;48612;50.742;-1.226;2022-09-09T08:51:01;5.47;;;2.30;;
62556;SDS011;48612;50.742;-1.226;2022-09-09T08:53:41;8.10;;;2.03;;
62556;SDS011;48612;50.742;-1.226;2022-09-09T08:56:16;5.07;;;2.45;;
62556;SDS011;48612;50.742;-1.226;2022-09-09T08:58:48;5.88;;;2.20;;
62556;SDS011;48612;50.742;-1.226;2022-09-09T09:12:55;8.48;;;2.30;;
62556;SDS011;48612;50.742;-1.226;2022-09-09T09:15:28;7.60;;;2.05;;
62556;SDS011;48612;50.742;-1.226;2022-09-09T09:18:02;5.57;;;2.03;;
62556;SDS011;48612;50.742;-1.226;2022-09-09T09:23:12;8.63;;;2.10;;
62556;SDS011;48612;50.742;-1.226;2022-09-09T09:25:47;4.53;;;1.80;;
62556;SDS011;48612;50.742;-1.226;2022-09-09T09:28:24;5.90;;;2.08;;
62556;SDS011;48612;50.742;-1.226;2022-09-09T09:30:59;7.88;;;2.42;;
62556;SDS011;48612;50.742;-1.226;2022-09-09T09:36:13;5.53;;;1.83;;
62556;SDS011;48612;50.742;-1.226;2022-09-09T09:38:51;7.95;;;2.25;;
62556;SDS011;48612;50.742;-1.226;2022-09-09T09:41:28;4.53;;;1.83;;
62556;SDS011;48612;50.742;-1.226;2022-09-09T09:44:02;4.53;;;2.10;;
62556;SDS011;48612;50.742;-1.226;2022-09-09T09:47:17;7.28;;;2.38;;
62556;SDS011;48612;50.742;-1.226;2022-09-09T09:52:28;6.15;;;2.00;;
62556;SDS011;48612;50.742;-1.226;2022-09-09T09:54:56;4.97;;;1.75;;
62556;SDS011;48612;50.742;-1.226;2022-09-09T09:57:28;6.60;;;1.95;;
62556;SDS011;48612;50.742;-1.226;2022-09-09T10:00:20;4.88;;;2.03;;
62556;SDS011;48612;50.742;-1.226;2022-09-09T10:02:48;4.25;;;1.95;;
62556;SDS011;48612;50.742;-1.226;2022-09-09T10:05:19;6.97;;;2.03;;
62556;SDS011;48612;50.742;-1.226;2022-09-09T10:10:57;5.95;;;1.65;;
62556;SDS011;48612;50.742;-1.226;2022-09-09T10:13:39;4.93;;;1.77;;
62556;SDS011;48612;50.742;-1.226;2022-09-09T10:19:21;6.68;;;1.90;;
62556;SDS011;48612;50.742;-1.226;2022-09-09T10:25:23;5.47;;;2.00;;
62556;SDS011;48612;50.742;-1.226;2022-09-09T10:36:23;6.28;;;1.95;;
62556;SDS011;48612;50.742;-1.226;2022-09-09T10:39:04;8.25;;;2.10;;
62556;SDS011;48612;50.742;-1.226;2022-09-09T10:41:56;9.10;;;2.78;;
62556;SDS011;48612;50.742;-1.226;2022-09-09T10:50:21;7.50;;;2.25;;
62556;SDS011;48612;50.742;-1.226;2022-09-09T10:55:42;3.90;;;2.13;;
62556;SDS011;48612;50.742;-1.226;2022-09-09T10:58:39;4.93;;;1.95;;
62556;SDS011;48612;50.742;-1.226;2022-09-09T11:01:27;3.90;;;2.00;;
62556;SDS011;48612;50.742;-1.226;2022-09-09T11:04:05;4.53;;;2.20;;
62556;SDS011;48612;50.742;-1.226;2022-09-09T11:06:37;3.35;;;1.90;;
62556;SDS011;48612;50.742;-1.226;2022-09-09T11:09:15;4.60;;;1.87;;
62556;SDS011;48612;50.742;-1.226;2022-09-09T11:11:53;5.13;;;2.10;;
62556;SDS011;48612;50.742;-1.226;2022-09-09T11:14:22;4.40;;;1.95;;
62556;SDS011;48612;50.742;-1.226;2022-09-09T11:17:31;3.25;;;2.25;;
62556;SDS011;48612;50.742;-1.226;2022-09-09T11:20:06;3.88;;;2.25;;
62556;SDS011;48612;50.742;-1.226;2022-09-09T11:22:48;7.60;;;2.67;;
62556;SDS011;48612;50.742;-1.226;2022-09-09T11:25:51;7.82;;;3.08;;
62556;SDS011;48612;50.742;-1.226;2022-09-09T11:28:57;4.05;;;2.50;;
62556;SDS011;48612;50.742;-1.226;2022-09-09T11:43:04;5.18;;;2.00;;
62556;SDS011;48612;50.742;-1.226;2022-09-09T11:45:38;5.72;;;2.50;;
62556;SDS011;48612;50.742;-1.226;2022-09-09T11:48:24;3.67;;;2.30;;
62556;SDS011;48612;50.742;-1.226;2022-09-09T11:53:55;5.00;;;2.38;;
62556;SDS011;48612;50.742;-1.226;2022-09-09T11:57:04;6.03;;;1.80;;
62556;SDS011;48612;50.742;-1.226;2022-09-09T11:59:51;4.00;;;1.33;;
62556;SDS011;48612;50.742;-1.226;2022-09-09T12:02:56;1.20;;;1.10;;
62556;SDS011;48612;50.742;-1.226;2022-09-09T12:05:37;2.03;;;1.38;;
62556;SDS011;48612;50.742;-1.226;2022-09-09T12:08:09;4.20;;;1.40;;
62556;SDS011;48612;50.742;-1.226;2022-09-09T12:11:08;1.50;;;1.40;;
62556;SDS011;48612;50.742;-1.226;2022-09-09T12:13:53;1.98;;;1.40;;
62556;SDS011;48612;50.742;-1.226;2022-09-09T12:16:42;4.45;;;1.58;;
62556;SDS011;48612;50.742;-1.226;2022-09-09T12:19:14;4.10;;;1.30;;
62556;SDS011;48612;50.742;-1.226;2022-09-09T12:24:34;1.58;;;1.17;;
62556;SDS011;48612;50.742;-1.226;2022-09-09T12:27:36;2.25;;;1.17;;
62556;SDS011;48612;50.742;-1.226;2022-09-09T12:33:17;4.38;;;1.10;;
62556;SDS011;48612;50.742;-1.226;2022-09-09T12:35:44;2.13;;;1.10;;
62556;SDS011;48612;50.742;-1.226;2022-09-09T12:38:49;2.63;;;0.98;;
62556;SDS011;48612;50.742;-1.226;2022-09-09T12:41:19;1.83;;;1.05;;
62556;SDS011;48612;50.742;-1.226;2022-09-09T12:43:46;3.65;;;1.30;;
62556;SDS011;48612;50.742;-1.226;2022-09-09T12:46:20;2.45;;;1.13;;
62556;SDS011;48612;50.742;-1.226;2022-09-09T12:49:03;3.90;;;1.25;;
62556;SDS011;48612;50.742;-1.226;2022-09-09T12:52:52;7.10;;;1.77;;
62556;SDS011;48612;50.742;-1.226;2022-09-09T12:54:55;5.28;;;1.63;;
62556;SDS011;48612;50.742;-1.226;2022-09-09T12:57:23;3.55;;;1.48;;
62556;SDS011;48612;50.742;-1.226;2022-09-09T13:05:45;6.82;;;2.25;;
62556;SDS011;48612;50.742;-1.226;2022-09-09T13:08:12;3.97;;;0.93;;
62556;SDS011;48612;50.742;-1.226;2022-09-09T13:11:01;4.75;;;1.20;;
62556;SDS011;48612;50.742;-1.226;2022-09-09T13:13:36;5.82;;;1.30;;
62556;SDS011;48612;50.742;-1.226;2022-09-09T13:16:05;4.40;;;1.20;;
62556;SDS011;48612;50.742;-1.226;2022-09-09T13:18:44;4.55;;;1.40;;
62556;SDS011;48612;50.742;-1.226;2022-09-09T13:21:46;3.05;;;1.50;;
62556;SDS011;48612;50.742;-1.226;2022-09-09T13:25:00;1.45;;;1.25;;
62556;SDS011;48612;50.742;-1.226;2022-09-09T13:41:45;3.45;;;1.75;;
62556;SDS011;48612;50.742;-1.226;2022-09-09T13:44:31;5.25;;;1.65;;
62556;SDS011;48612;50.742;-1.226;2022-09-09T13:47:57;5.70;;;1.90;;
62556;SDS011;48612;50.742;-1.226;2022-09-09T13:50:36;2.13;;;1.40;;
62556;SDS011;48612;50.742;-1.226;2022-09-09T13:53:02;5.57;;;1.88;;
62556;SDS011;48612;50.742;-1.226;2022-09-09T13:55:36;3.35;;;1.73;;
62556;SDS011;48612;50.742;-1.226;2022-09-09T13:58:04;4.38;;;2.00;;
62556;SDS011;48612;50.742;-1.226;2022-09-09T14:01:25;7.15;;;2.13;;
62556;SDS011;48612;50.742;-1.226;2022-09-09T14:03:54;3.42;;;2.05;;
62556;SDS011;48612;50.742;-1.226;2022-09-09T14:06:23;5.45;;;1.85;;
62556;SDS011;48612;50.742;-1.226;2022-09-09T14:09:13;5.15;;;1.83;;
62556;SDS011;48612;50.742;-1.226;2022-09-09T14:11:55;6.03;;;1.95;;
62556;SDS011;48612;50.742;-1.226;2022-09-09T14:14:21;9.18;;;1.85;;
62556;SDS011;48612;50.742;-1.226;2022-09-09T14:16:50;5.68;;;1.83;;
62556;SDS011;48612;50.742;-1.226;2022-09-09T14:19:16;5.10;;;1.83;;
62556;SDS011;48612;50.742;-1.226;2022-09-09T14:21:48;7.25;;;1.95;;
62556;SDS011;48612;50.742;-1.226;2022-09-09T14:24:26;3.85;;;1.95;;
62556;SDS011;48612;50.742;-1.226;2022-09-09T14:26:59;4.97;;;1.88;;
62556;SDS011;48612;50.742;-1.226;2022-09-09T14:29:25;5.32;;;1.77;;
62556;SDS011;48612;50.742;-1.226;2022-09-09T14:31:57;9.73;;;2.72;;
62556;SDS011;48612;50.742;-1.226;2022-09-09T14:34:28;6.05;;;1.70;;
62556;SDS011;48612;50.742;-1.226;2022-09-09T14:36:58;5.30;;;1.90;;
62556;SDS011;48612;50.742;-1.226;2022-09-09T14:39:33;5.93;;;2.10;;
62556;SDS011;48612;50.742;-1.226;2022-09-09T14:41:59;5.88;;;2.03;;
62556;SDS011;48612;50.742;-1.226;2022-09-09T14:44:27;4.20;;;1.98;;
62556;SDS011;48612;50.742;-1.226;2022-09-09T14:46:53;6.10;;;1.83;;
62556;SDS011;48612;50.742;-1.226;2022-09-09T14:49:37;5.82;;;2.15;;
62556;SDS011;48612;50.742;-1.226;2022-09-09T14:52:31;6.13;;;1.88;;
62556;SDS011;48612;50.742;-1.226;2022-09-09T15:17:33;9.10;;;1.95;;
62556;SDS011;48612;50.742;-1.226;2022-09-09T15:19:58;4.25;;;2.10;;
62556;SDS011;48612;50.742;-1.226;2022-09-09T15:22:44;8.60;;;2.75;;
62556;SDS011;48612;50.742;-1.226;2022-09-09T15:25:30;5.50;;;2.05;;
62556;SDS011;48612;50.742;-1.226;2022-09-09T15:28:05;6.05;;;2.00;;
62556;SDS011;48612;50.742;-1.226;2022-09-09T15:30:34;4.82;;;2.13;;
62556;SDS011;48612;50.742;-1.226;2022-09-09T15:33:00;3.70;;;2.20;;
62556;SDS011;48612;50.742;-1.226;2022-09-09T15:35:25;11.07;;;2.70;;
62556;SDS011;48612;50.742;-1.226;2022-09-09T15:38:13;8.30;;;2.10;;
62556;SDS011;48612;50.742;-1.226;2022-09-09T15:41:21;6.50;;;2.13;;
62556;SDS011;48612;50.742;-1.226;2022-09-09T15:43:49;9.93;;;2.47;;
62556;SDS011;48612;50.742;-1.226;2022-09-09T15:49:19;9.43;;;2.85;;
62556;SDS011;48612;50.742;-1.226;2022-09-09T15:52:04;5.32;;;2.05;;
62556;SDS011;48612;50.742;-1.226;2022-09-09T15:54:35;8.88;;;2.50;;
62556;SDS011;48612;50.742;-1.226;2022-09-09T15:57:05;6.45;;;2.47;;
62556;SDS011;48612;50.742;-1.226;2022-09-09T15:59:32;5.90;;;2.25;;
62556;SDS011;48612;50.742;-1.226;2022-09-09T16:02:11;6.35;;;2.17;;
62556;SDS011;48612;50.742;-1.226;2022-09-09T16:04:45;8.32;;;2.40;;
62556;SDS011;48612;50.742;-1.226;2022-09-09T16:07:14;12.55;;;2.50;;
62556;SDS011;48612;50.742;-1.226;2022-09-09T16:10:04;9.20;;;2.40;;
62556;SDS011;48612;50.742;-1.226;2022-09-09T16:13:00;6.25;;;2.30;;
62556;SDS011;48612;50.742;-1.226;2022-09-09T16:15:53;5.50;;;2.20;;
62556;SDS011;48612;50.742;-1.226;2022-09-09T16:18:23;5.10;;;2.28;;
62556;SDS011;48612;50.742;-1.226;2022-09-09T16:21:35;6.32;;;2.88;;
62556;SDS011;48612;50.742;-1.226;2022-09-09T16:24:05;10.20;;;2.58;;
62556;SDS011;48612;50.742;-1.226;2022-09-09T16:26:47;5.72;;;2.40;;
62556;SDS011;48612;50.742;-1.226;2022-09-09T16:29:22;3.45;;;2.08;;
62556;SDS011;48612;50.742;-1.226;2022-09-09T16:32:12;9.73;;;2.20;;
62556;SDS011;48612;50.742;-1.226;2022-09-09T16:34:39;5.22;;;2.60;;
62556;SDS011;48612;50.742;-1.226;2022-09-09T16:37:08;4.30;;;2.10;;
62556;SDS011;48612;50.742;-1.226;2022-09-09T16:39:36;7.88;;;2.15;;
62556;SDS011;48612;50.742;-1.226;2022-09-09T16:42:03;12.18;;;2.47;;
62556;SDS011;48612;50.742;-1.226;2022-09-09T16:44:29;6.90;;;2.28;;
62556;SDS011;48612;50.742;-1.226;2022-09-09T16:46:55;10.05;;;2.45;;
62556;SDS011;48612;50.742;-1.226;2022-09-09T16:49:25;10.15;;;2.75;;
62556;SDS011;48612;50.742;-1.226;2022-09-09T16:51:56;10.13;;;2.75;;
62556;SDS011;48612;50.742;-1.226;2022-09-09T16:54:25;3.78;;;2.30;;
62556;SDS011;48612;50.742;-1.226;2022-09-09T18:54:16;3.25;;;2.13;;
62556;SDS011;48612;50.742;-1.226;2022-09-09T18:56:59;9.05;;;2.22;;
62556;SDS011;48612;50.742;-1.226;2022-09-09T18:59:29;7.80;;;2.53;;
62556;SDS011;48612;50.742;-1.226;2022-09-09T19:01:56;5.30;;;2.60;;
62556;SDS011;48612;50.742;-1.226;2022-09-09T19:04:23;4.82;;;2.40;;
62556;SDS011;48612;50.742;-1.226;2022-09-09T19:06:51;3.55;;;2.38;;
62556;SDS011;48612;50.742;-1.226;2022-09-09T19:09:24;6.35;;;2.30;;
62556;SDS011;48612;50.742;-1.226;2022-09-09T19:11:52;7.88;;;2.38;;
62556;SDS011;48612;50.742;-1.226;2022-09-09T19:14:18;4.30;;;2.03;;
62556;SDS011;48612;50.742;-1.226;2022-09-09T19:16:44;5.00;;;2.47;;
62556;SDS011;48612;50.742;-1.226;2022-09-09T19:19:32;5.63;;;2.33;;
62556;SDS011;48612;50.742;-1.226;2022-09-09T19:21:59;7.15;;;2.25;;
62556;SDS011;48612;50.742;-1.226;2022-09-09T19:24:29;9.02;;;2.40;;
62556;SDS011;48612;50.742;-1.226;2022-09-09T19:49:49;7.53;;;2.20;;
62556;SDS011;48612;50.742;-1.226;2022-09-09T19:52:15;5.28;;;2.20;;
62556;SDS011;48612;50.742;-1.226;2022-09-09T19:54:42;5.15;;;2.33;;
62556;SDS011;48612;50.742;-1.226;2022-09-09T19:57:09;5.03;;;2.47;;
62556;SDS011;48612;50.742;-1.226;2022-09-09T19:59:55;4.95;;;2.33;;
62556;SDS011;48612;50.742;-1.226;2022-09-09T20:02:21;4.45;;;2.40;;
62556;SDS011;48612;50.742;-1.226;2022-09-09T20:04:48;5.13;;;2.45;;
62556;SDS011;48612;50.742;-1.226;2022-09-09T20:07:31;9.30;;;3.00;;
62556;SDS011;48612;50.742;-1.226;2022-09-09T20:09:58;6.65;;;2.60;;
62556;SDS011;48612;50.742;-1.226;2022-09-09T20:12:23;6.85;;;2.40;;
62556;SDS011;48612;50.742;-1.226;2022-09-09T20:14:56;4.80;;;2.67;;
62556;SDS011;48612;50.742;-1.226;2022-09-09T20:17:23;10.77;;;2.58;;
62556;SDS011;48612;50.742;-1.226;2022-09-09T20:19:49;5.80;;;3.08;;
62556;SDS011;48612;50.742;-1.226;2022-09-09T20:22:15;7.65;;;2.53;;
62556;SDS011;48612;50.742;-1.226;2022-09-09T20:24:41;5.07;;;2.65;;
62556;SDS011;48612;50.742;-1.226;2022-09-09T20:27:08;3.97;;;2.20;;
62556;SDS011;48612;50.742;-1.226;2022-09-09T20:29:33;5.15;;;2.40;;
62556;SDS011;48612;50.742;-1.226;2022-09-09T20:32:03;6.57;;;2.70;;
62556;SDS011;48612;50.742;-1.226;2022-09-09T20:34:30;4.82;;;2.60;;
62556;SDS011;48612;50.742;-1.226;2022-09-09T20:37:00;3.25;;;2.17;;
62556;SDS011;48612;50.742;-1.226;2022-09-09T20:39:48;8.82;;;2.53;;
62556;SDS011;48612;50.742;-1.226;2022-09-09T20:42:18;5.80;;;2.22;;
62556;SDS011;48612;50.742;-1.226;2022-09-09T20:44:44;8.10;;;2.80;;
62556;SDS011;48612;50.742;-1.226;2022-09-09T20:47:14;5.35;;;2.45;;
62556;SDS011;48612;50.742;-1.226;2022-09-09T20:49:40;6.45;;;2.78;;
62556;SDS011;48612;50.742;-1.226;2022-09-09T20:52:06;5.88;;;2.72;;
62556;SDS011;48612;50.742;-1.226;2022-09-09T20:54:35;10.27;;;3.15;;
62556;SDS011;48612;50.742;-1.226;2022-09-09T20:57:06;7.78;;;2.33;;
62556;SDS011;48612;50.742;-1.226;2022-09-09T20:59:32;5.93;;;2.67;;
62556;SDS011;48612;50.742;-1.226;2022-09-09T21:02:02;5.65;;;2.15;;
62556;SDS011;48612;50.742;-1.226;2022-09-09T21:04:40;5.18;;;2.50;;
62556;SDS011;48612;50.742;-1.226;2022-09-09T21:11:39;5.43;;;2.22;;
62556;SDS011;48612;50.742;-1.226;2022-09-09T21:14:25;10.20;;;2.70;;
62556;SDS011;48612;50.742;-1.226;2022-09-09T21:16:57;4.47;;;2.40;;
62556;SDS011;48612;50.742;-1.226;2022-09-09T21:19:44;3.83;;;2.45;;
62556;SDS011;48612;50.742;-1.226;2022-09-09T21:23:12;5.25;;;2.33;;
62556;SDS011;48612;50.742;-1.226;2022-09-09T21:26:10;4.68;;;2.45;;
62556;SDS011;48612;50.742;-1.226;2022-09-09T21:28:39;5.88;;;2.40;;
62556;SDS011;48612;50.742;-1.226;2022-09-09T21:31:23;6.78;;;2.28;;
62556;SDS011;48612;50.742;-1.226;2022-09-09T21:33:58;7.43;;;2.60;;
62556;SDS011;48612;50.742;-1.226;2022-09-09T21:36:33;5.25;;;2.50;;
62556;SDS011;48612;50.742;-1.226;2022-09-09T21:39:04;6.63;;;2.47;;
62556;SDS011;48612;50.742;-1.226;2022-09-09T21:41:32;8.15;;;2.95;;
62556;SDS011;48612;50.742;-1.226;2022-09-09T21:44:00;6.78;;;2.75;;
62556;SDS011;48612;50.742;-1.226;2022-09-09T21:46:44;10.20;;;2.95;;
62556;SDS011;48612;50.742;-1.226;2022-09-09T21:49:31;6.93;;;2.90;;
62556;SDS011;48612;50.742;-1.226;2022-09-09T21:52:02;9.07;;;3.30;;
62556;SDS011;48612;50.742;-1.226;2022-09-09T22:00:10;9.82;;;3.10;;
62556;SDS011;48612;50.742;-1.226;2022-09-09T22:02:41;7.18;;;3.15;;
62556;SDS011;48612;50.742;-1.226;2022-09-09T22:05:10;7.97;;;3.35;;
62556;SDS011;48612;50.742;-1.226;2022-09-09T22:07:40;7.18;;;2.78;;
62556;SDS011;48612;50.742;-1.226;2022-09-09T22:10:19;6.72;;;2.88;;
62556;SDS011;48612;50.742;-1.226;2022-09-09T22:12:51;9.30;;;2.60;;
62556;SDS011;48612;50.742;-1.226;2022-09-09T22:15:33;6.00;;;2.50;;
62556;SDS011;48612;50.742;-1.226;2022-09-09T22:18:04;3.83;;;2.40;;
62556;SDS011;48612;50.742;-1.226;2022-09-09T22:20:38;8.98;;;2.80;;
62556;SDS011;48612;50.742;-1.226;2022-09-09T22:23:09;8.90;;;2.80;;
62556;SDS011;48612;50.742;-1.226;2022-09-09T22:25:38;10.68;;;3.17;;
62556;SDS011;48612;50.742;-1.226;2022-09-09T22:28:11;4.80;;;2.63;;